sensor_id;sensor_type;location;lat;lon;timestamp;P1;durP1;ratioP1;P2;durP2;ratioP2
56363;SDS011;42261;52.094;4.326;2022-11-04T00:01:02;4.35;;;0.50;;
56363;SDS011;42261;52.094;4.326;2022-11-04T00:03:48;2.85;;;0.40;;
56363;SDS011;42261;52.094;4.326;2022-11-04T00:06:32;2.00;;;0.40;;
56363;SDS011;42261;52.094;4.326;2022-11-04T00:09:18;3.90;;;0.35;;
56363;SDS011;42261;52.094;4.326;2022-11-04T00:12:20;3.05;;;0.30;;
56363;SDS011;42261;52.094;4.326;2022-11-04T00:15:09;0.55;;;0.30;;
56363;SDS011;42261;52.094;4.326;2022-11-04T00:18:12;3.58;;;0.32;;
56363;SDS011;42261;52.094;4.326;2022-11-04T00:20:56;2.38;;;0.30;;
56363;SDS011;42261;52.094;4.326;2022-11-04T00:24:00;1.65;;;0.40;;
56363;SDS011;42261;52.094;4.326;2022-11-04T00:27:03;3.70;;;0.50;;
56363;SDS011;42261;52.094;4.326;2022-11-04T00:30:07;1.88;;;0.40;;
56363;SDS011;42261;52.094;4.326;2022-11-04T00:32:53;0.77;;;0.32;;
56363;SDS011;42261;52.094;4.326;2022-11-04T00:35:55;0.63;;;0.20;;
56363;SDS011;42261;52.094;4.326;2022-11-04T00:38:40;4.05;;;0.50;;
56363;SDS011;42261;52.094;4.326;2022-11-04T00:41:24;2.78;;;0.35;;
56363;SDS011;42261;52.094;4.326;2022-11-04T00:44:08;1.83;;;0.55;;
56363;SDS011;42261;52.094;4.326;2022-11-04T00:46:53;2.72;;;0.32;;
56363;SDS011;42261;52.094;4.326;2022-11-04T00:49:37;6.03;;;0.82;;
56363;SDS011;42261;52.094;4.326;2022-11-04T00:52:22;4.20;;;0.47;;
56363;SDS011;42261;52.094;4.326;2022-11-04T00:55:06;2.45;;;0.50;;
56363;SDS011;42261;52.094;4.326;2022-11-04T00:57:50;2.92;;;0.50;;
56363;SDS011;42261;52.094;4.326;2022-11-04T01:00:35;1.23;;;0.40;;
56363;SDS011;42261;52.094;4.326;2022-11-04T01:03:21;1.60;;;0.43;;
56363;SDS011;42261;52.094;4.326;2022-11-04T01:06:06;4.28;;;0.40;;
56363;SDS011;42261;52.094;4.326;2022-11-04T01:08:56;2.08;;;1.20;;
56363;SDS011;42261;52.094;4.326;2022-11-04T01:11:46;2.58;;;0.50;;
56363;SDS011;42261;52.094;4.326;2022-11-04T01:14:30;3.58;;;2.25;;
56363;SDS011;42261;52.094;4.326;2022-11-04T01:17:14;4.72;;;0.52;;
56363;SDS011;42261;52.094;4.326;2022-11-04T01:19:59;2.55;;;0.57;;
56363;SDS011;42261;52.094;4.326;2022-11-04T01:22:44;2.08;;;0.70;;
56363;SDS011;42261;52.094;4.326;2022-11-04T01:25:29;2.13;;;0.70;;
56363;SDS011;42261;52.094;4.326;2022-11-04T01:28:13;1.95;;;0.40;;
56363;SDS011;42261;52.094;4.326;2022-11-04T01:30:58;3.25;;;0.30;;
56363;SDS011;42261;52.094;4.326;2022-11-04T01:33:42;1.90;;;0.50;;
56363;SDS011;42261;52.094;4.326;2022-11-04T01:36:27;2.33;;;0.35;;
56363;SDS011;42261;52.094;4.326;2022-11-04T01:39:17;4.60;;;0.50;;
56363;SDS011;42261;52.094;4.326;2022-11-04T01:42:01;2.25;;;0.60;;
56363;SDS011;42261;52.094;4.326;2022-11-04T01:44:50;1.75;;;0.60;;
56363;SDS011;42261;52.094;4.326;2022-11-04T01:47:38;1.67;;;0.95;;
56363;SDS011;42261;52.094;4.326;2022-11-04T01:50:28;1.35;;;0.70;;
56363;SDS011;42261;52.094;4.326;2022-11-04T01:53:15;3.85;;;0.52;;
56363;SDS011;42261;52.094;4.326;2022-11-04T01:56:03;5.15;;;0.40;;
56363;SDS011;42261;52.094;4.326;2022-11-04T01:58:55;2.55;;;0.65;;
56363;SDS011;42261;52.094;4.326;2022-11-04T02:01:45;2.00;;;0.60;;
56363;SDS011;42261;52.094;4.326;2022-11-04T02:04:30;1.55;;;0.47;;
56363;SDS011;42261;52.094;4.326;2022-11-04T02:07:15;2.20;;;0.50;;
56363;SDS011;42261;52.094;4.326;2022-11-04T02:10:01;3.05;;;0.50;;
56363;SDS011;42261;52.094;4.326;2022-11-04T02:15:40;1.17;;;0.38;;
56363;SDS011;42261;52.094;4.326;2022-11-04T02:21:48;2.90;;;0.60;;
56363;SDS011;42261;52.094;4.326;2022-11-04T02:31:00;0.90;;;0.45;;
56363;SDS011;42261;52.094;4.326;2022-11-04T02:37:00;0.95;;;0.47;;
56363;SDS011;42261;52.094;4.326;2022-11-04T02:40:05;4.22;;;0.73;;
56363;SDS011;42261;52.094;4.326;2022-11-04T02:43:07;1.60;;;0.52;;
56363;SDS011;42261;52.094;4.326;2022-11-04T02:46:43;4.20;;;1.00;;
56363;SDS011;42261;52.094;4.326;2022-11-04T02:49:22;4.07;;;0.85;;
56363;SDS011;42261;52.094;4.326;2022-11-04T02:52:13;3.08;;;1.42;;
56363;SDS011;42261;52.094;4.326;2022-11-04T02:57:49;3.83;;;1.20;;
56363;SDS011;42261;52.094;4.326;2022-11-04T03:00:38;5.43;;;1.30;;
56363;SDS011;42261;52.094;4.326;2022-11-04T03:03:25;4.38;;;1.60;;
56363;SDS011;42261;52.094;4.326;2022-11-04T03:06:11;4.30;;;1.80;;
56363;SDS011;42261;52.094;4.326;2022-11-04T03:08:58;8.60;;;1.80;;
56363;SDS011;42261;52.094;4.326;2022-11-04T03:11:44;3.38;;;2.03;;
56363;SDS011;42261;52.094;4.326;2022-11-04T03:14:36;7.15;;;1.88;;
56363;SDS011;42261;52.094;4.326;2022-11-04T03:17:26;6.30;;;2.25;;
56363;SDS011;42261;52.094;4.326;2022-11-04T03:20:20;5.38;;;2.05;;
56363;SDS011;42261;52.094;4.326;2022-11-04T03:23:08;5.32;;;1.80;;
56363;SDS011;42261;52.094;4.326;2022-11-04T03:25:55;7.95;;;2.40;;
56363;SDS011;42261;52.094;4.326;2022-11-04T03:28:50;5.18;;;2.38;;
56363;SDS011;42261;52.094;4.326;2022-11-04T03:34:59;4.50;;;2.42;;
56363;SDS011;42261;52.094;4.326;2022-11-04T03:37:44;3.63;;;1.90;;
56363;SDS011;42261;52.094;4.326;2022-11-04T03:40:30;4.18;;;1.88;;
56363;SDS011;42261;52.094;4.326;2022-11-04T03:43:22;6.07;;;1.92;;
56363;SDS011;42261;52.094;4.326;2022-11-04T03:46:09;5.70;;;2.35;;
56363;SDS011;42261;52.094;4.326;2022-11-04T03:48:53;4.68;;;2.38;;
56363;SDS011;42261;52.094;4.326;2022-11-04T03:51:38;6.45;;;2.42;;
56363;SDS011;42261;52.094;4.326;2022-11-04T03:54:23;6.85;;;2.75;;
56363;SDS011;42261;52.094;4.326;2022-11-04T04:00:16;7.53;;;3.95;;
56363;SDS011;42261;52.094;4.326;2022-11-04T04:05:59;10.43;;;4.53;;
56363;SDS011;42261;52.094;4.326;2022-11-04T04:08:50;7.78;;;3.78;;
56363;SDS011;42261;52.094;4.326;2022-11-04T04:14:51;8.93;;;4.50;;
56363;SDS011;42261;52.094;4.326;2022-11-04T04:17:39;13.25;;;5.18;;
56363;SDS011;42261;52.094;4.326;2022-11-04T04:23:14;16.15;;;5.45;;
56363;SDS011;42261;52.094;4.326;2022-11-04T04:26:19;9.73;;;5.45;;
56363;SDS011;42261;52.094;4.326;2022-11-04T04:29:23;11.82;;;5.88;;
56363;SDS011;42261;52.094;4.326;2022-11-04T04:32:08;11.63;;;5.10;;
56363;SDS011;42261;52.094;4.326;2022-11-04T04:34:53;9.85;;;4.88;;
56363;SDS011;42261;52.094;4.326;2022-11-04T04:37:59;9.02;;;4.53;;
56363;SDS011;42261;52.094;4.326;2022-11-04T04:41:08;11.38;;;5.80;;
56363;SDS011;42261;52.094;4.326;2022-11-04T04:44:26;10.98;;;5.28;;
56363;SDS011;42261;52.094;4.326;2022-11-04T04:47:43;13.10;;;5.15;;
56363;SDS011;42261;52.094;4.326;2022-11-04T04:50:34;13.02;;;5.40;;
56363;SDS011;42261;52.094;4.326;2022-11-04T04:53:22;8.77;;;4.25;;
56363;SDS011;42261;52.094;4.326;2022-11-04T04:56:07;11.38;;;5.40;;
56363;SDS011;42261;52.094;4.326;2022-11-04T04:58:51;15.05;;;5.50;;
56363;SDS011;42261;52.094;4.326;2022-11-04T05:01:36;11.05;;;5.03;;
56363;SDS011;42261;52.094;4.326;2022-11-04T05:04:20;12.60;;;5.50;;
56363;SDS011;42261;52.094;4.326;2022-11-04T05:07:05;10.20;;;5.43;;
56363;SDS011;42261;52.094;4.326;2022-11-04T05:09:51;12.93;;;6.38;;
56363;SDS011;42261;52.094;4.326;2022-11-04T05:12:36;9.25;;;5.10;;
56363;SDS011;42261;52.094;4.326;2022-11-04T05:15:43;10.20;;;3.15;;
56363;SDS011;42261;52.094;4.326;2022-11-04T05:18:27;5.97;;;2.05;;
56363;SDS011;42261;52.094;4.326;2022-11-04T05:21:13;5.60;;;1.70;;
56363;SDS011;42261;52.094;4.326;2022-11-04T05:23:59;6.55;;;1.95;;
56363;SDS011;42261;52.094;4.326;2022-11-04T05:26:43;5.68;;;2.03;;
56363;SDS011;42261;52.094;4.326;2022-11-04T05:29:28;6.50;;;2.38;;
56363;SDS011;42261;52.094;4.326;2022-11-04T05:32:17;4.28;;;1.70;;
56363;SDS011;42261;52.094;4.326;2022-11-04T05:35:01;4.07;;;1.90;;
56363;SDS011;42261;52.094;4.326;2022-11-04T05:37:46;3.08;;;1.40;;
56363;SDS011;42261;52.094;4.326;2022-11-04T05:40:32;4.43;;;2.28;;
56363;SDS011;42261;52.094;4.326;2022-11-04T05:43:17;5.13;;;2.00;;
56363;SDS011;42261;52.094;4.326;2022-11-04T05:46:01;4.50;;;1.83;;
56363;SDS011;42261;52.094;4.326;2022-11-04T05:48:47;2.33;;;1.42;;
56363;SDS011;42261;52.094;4.326;2022-11-04T05:51:32;3.47;;;1.77;;
56363;SDS011;42261;52.094;4.326;2022-11-04T05:54:16;6.68;;;2.42;;
56363;SDS011;42261;52.094;4.326;2022-11-04T05:57:00;4.97;;;1.67;;
56363;SDS011;42261;52.094;4.326;2022-11-04T05:59:45;3.67;;;1.90;;
56363;SDS011;42261;52.094;4.326;2022-11-04T06:02:30;7.38;;;2.38;;
56363;SDS011;42261;52.094;4.326;2022-11-04T06:05:14;5.15;;;2.42;;
56363;SDS011;42261;52.094;4.326;2022-11-04T06:07:58;5.97;;;2.95;;
56363;SDS011;42261;52.094;4.326;2022-11-04T06:10:43;5.97;;;3.38;;
56363;SDS011;42261;52.094;4.326;2022-11-04T06:13:27;9.55;;;4.53;;
56363;SDS011;42261;52.094;4.326;2022-11-04T06:16:11;9.23;;;4.97;;
56363;SDS011;42261;52.094;4.326;2022-11-04T06:18:55;12.05;;;5.25;;
56363;SDS011;42261;52.094;4.326;2022-11-04T06:21:39;10.57;;;5.53;;
56363;SDS011;42261;52.094;4.326;2022-11-04T06:24:23;11.63;;;6.53;;
56363;SDS011;42261;52.094;4.326;2022-11-04T06:27:08;9.27;;;5.78;;
56363;SDS011;42261;52.094;4.326;2022-11-04T06:29:53;12.60;;;5.85;;
56363;SDS011;42261;52.094;4.326;2022-11-04T06:32:37;8.68;;;5.13;;
56363;SDS011;42261;52.094;4.326;2022-11-04T06:35:21;8.90;;;5.50;;
56363;SDS011;42261;52.094;4.326;2022-11-04T06:38:06;13.38;;;5.32;;
56363;SDS011;42261;52.094;4.326;2022-11-04T06:40:51;6.05;;;3.67;;
56363;SDS011;42261;52.094;4.326;2022-11-04T06:43:36;11.88;;;4.03;;
56363;SDS011;42261;52.094;4.326;2022-11-04T06:46:24;5.85;;;3.40;;
56363;SDS011;42261;52.094;4.326;2022-11-04T06:49:12;10.30;;;3.20;;
56363;SDS011;42261;52.094;4.326;2022-11-04T06:52:00;7.82;;;3.53;;
56363;SDS011;42261;52.094;4.326;2022-11-04T06:54:45;5.43;;;3.08;;
56363;SDS011;42261;52.094;4.326;2022-11-04T06:57:30;6.38;;;3.05;;
56363;SDS011;42261;52.094;4.326;2022-11-04T07:00:22;11.98;;;3.30;;
56363;SDS011;42261;52.094;4.326;2022-11-04T07:03:07;5.25;;;2.50;;
56363;SDS011;42261;52.094;4.326;2022-11-04T07:05:55;10.00;;;4.13;;
56363;SDS011;42261;52.094;4.326;2022-11-04T07:08:39;8.10;;;3.28;;
56363;SDS011;42261;52.094;4.326;2022-11-04T07:11:26;13.13;;;4.05;;
56363;SDS011;42261;52.094;4.326;2022-11-04T07:14:12;9.07;;;3.33;;
56363;SDS011;42261;52.094;4.326;2022-11-04T07:16:56;5.40;;;2.92;;
56363;SDS011;42261;52.094;4.326;2022-11-04T07:19:40;6.35;;;2.50;;
56363;SDS011;42261;52.094;4.326;2022-11-04T07:22:24;3.78;;;2.63;;
56363;SDS011;42261;52.094;4.326;2022-11-04T07:25:12;5.60;;;3.13;;
56363;SDS011;42261;52.094;4.326;2022-11-04T07:27:59;7.25;;;3.25;;
56363;SDS011;42261;52.094;4.326;2022-11-04T07:30:48;5.63;;;3.05;;
56363;SDS011;42261;52.094;4.326;2022-11-04T07:33:32;6.20;;;2.50;;
56363;SDS011;42261;52.094;4.326;2022-11-04T07:36:18;4.05;;;2.00;;
56363;SDS011;42261;52.094;4.326;2022-11-04T07:39:02;7.57;;;2.70;;
56363;SDS011;42261;52.094;4.326;2022-11-04T07:41:47;4.22;;;2.03;;
56363;SDS011;42261;52.094;4.326;2022-11-04T07:44:32;5.93;;;1.70;;
56363;SDS011;42261;52.094;4.326;2022-11-04T07:47:16;4.95;;;1.90;;
56363;SDS011;42261;52.094;4.326;2022-11-04T07:50:01;4.80;;;2.15;;
56363;SDS011;42261;52.094;4.326;2022-11-04T07:52:45;7.25;;;1.38;;
56363;SDS011;42261;52.094;4.326;2022-11-04T07:55:30;3.85;;;1.58;;
56363;SDS011;42261;52.094;4.326;2022-11-04T07:58:15;3.60;;;1.60;;
56363;SDS011;42261;52.094;4.326;2022-11-04T08:01:00;4.00;;;1.70;;
56363;SDS011;42261;52.094;4.326;2022-11-04T08:03:45;3.53;;;1.40;;
56363;SDS011;42261;52.094;4.326;2022-11-04T08:06:30;4.32;;;1.60;;
56363;SDS011;42261;52.094;4.326;2022-11-04T08:09:14;4.90;;;1.60;;
56363;SDS011;42261;52.094;4.326;2022-11-04T08:11:59;4.53;;;1.70;;
56363;SDS011;42261;52.094;4.326;2022-11-04T08:14:43;3.45;;;1.30;;
56363;SDS011;42261;52.094;4.326;2022-11-04T08:17:27;2.85;;;1.30;;
56363;SDS011;42261;52.094;4.326;2022-11-04T08:20:11;3.45;;;1.58;;
56363;SDS011;42261;52.094;4.326;2022-11-04T08:22:55;4.40;;;1.40;;
56363;SDS011;42261;52.094;4.326;2022-11-04T08:25:39;2.53;;;1.60;;
56363;SDS011;42261;52.094;4.326;2022-11-04T08:28:24;3.25;;;1.10;;
56363;SDS011;42261;52.094;4.326;2022-11-04T08:31:22;4.57;;;1.63;;
56363;SDS011;42261;52.094;4.326;2022-11-04T08:34:11;3.00;;;1.10;;
56363;SDS011;42261;52.094;4.326;2022-11-04T08:36:57;2.13;;;0.88;;
56363;SDS011;42261;52.094;4.326;2022-11-04T08:39:43;3.05;;;1.10;;
56363;SDS011;42261;52.094;4.326;2022-11-04T08:42:28;4.63;;;1.90;;
56363;SDS011;42261;52.094;4.326;2022-11-04T08:45:12;1.65;;;0.98;;
56363;SDS011;42261;52.094;4.326;2022-11-04T08:47:57;4.45;;;1.33;;
56363;SDS011;42261;52.094;4.326;2022-11-04T08:50:41;3.70;;;1.20;;
56363;SDS011;42261;52.094;4.326;2022-11-04T08:53:26;4.47;;;1.30;;
56363;SDS011;42261;52.094;4.326;2022-11-04T08:56:22;1.80;;;1.20;;
56363;SDS011;42261;52.094;4.326;2022-11-04T08:59:09;2.15;;;1.00;;
56363;SDS011;42261;52.094;4.326;2022-11-04T09:01:54;2.15;;;1.45;;
56363;SDS011;42261;52.094;4.326;2022-11-04T09:04:38;3.70;;;1.23;;
56363;SDS011;42261;52.094;4.326;2022-11-04T09:07:22;2.22;;;0.85;;
56363;SDS011;42261;52.094;4.326;2022-11-04T09:10:06;2.55;;;1.60;;
56363;SDS011;42261;52.094;4.326;2022-11-04T09:12:51;3.10;;;1.25;;
56363;SDS011;42261;52.094;4.326;2022-11-04T09:15:36;3.20;;;1.40;;
56363;SDS011;42261;52.094;4.326;2022-11-04T09:18:21;5.50;;;1.70;;
56363;SDS011;42261;52.094;4.326;2022-11-04T09:21:06;3.05;;;1.52;;
56363;SDS011;42261;52.094;4.326;2022-11-04T09:23:52;2.88;;;1.33;;
56363;SDS011;42261;52.094;4.326;2022-11-04T09:26:36;5.05;;;1.40;;
56363;SDS011;42261;52.094;4.326;2022-11-04T09:29:21;4.45;;;1.65;;
56363;SDS011;42261;52.094;4.326;2022-11-04T09:32:06;3.25;;;1.48;;
56363;SDS011;42261;52.094;4.326;2022-11-04T09:34:51;2.90;;;1.50;;
56363;SDS011;42261;52.094;4.326;2022-11-04T09:37:36;4.57;;;2.10;;
56363;SDS011;42261;52.094;4.326;2022-11-04T09:40:21;3.88;;;1.98;;
56363;SDS011;42261;52.094;4.326;2022-11-04T09:45:57;5.07;;;1.88;;
56363;SDS011;42261;52.094;4.326;2022-11-04T09:48:52;4.50;;;1.85;;
56363;SDS011;42261;52.094;4.326;2022-11-04T09:51:38;4.47;;;1.70;;
56363;SDS011;42261;52.094;4.326;2022-11-04T09:57:16;3.28;;;1.80;;
56363;SDS011;42261;52.094;4.326;2022-11-04T10:00:02;6.82;;;1.98;;
56363;SDS011;42261;52.094;4.326;2022-11-04T10:02:50;4.80;;;1.60;;
56363;SDS011;42261;52.094;4.326;2022-11-04T10:18:31;3.97;;;1.60;;
56363;SDS011;42261;52.094;4.326;2022-11-04T10:24:49;5.38;;;2.15;;
56363;SDS011;42261;52.094;4.326;2022-11-04T10:27:36;3.78;;;2.42;;
56363;SDS011;42261;52.094;4.326;2022-11-04T10:30:23;5.15;;;2.55;;
56363;SDS011;42261;52.094;4.326;2022-11-04T10:36:14;3.60;;;1.45;;
56363;SDS011;42261;52.094;4.326;2022-11-04T10:39:00;2.63;;;1.67;;
56363;SDS011;42261;52.094;4.326;2022-11-04T10:41:46;5.75;;;1.67;;
56363;SDS011;42261;52.094;4.326;2022-11-04T10:44:33;4.57;;;1.70;;
56363;SDS011;42261;52.094;4.326;2022-11-04T10:47:29;2.55;;;1.27;;
56363;SDS011;42261;52.094;4.326;2022-11-04T10:53:32;2.45;;;1.38;;
56363;SDS011;42261;52.094;4.326;2022-11-04T10:56:34;1.98;;;0.70;;
56363;SDS011;42261;52.094;4.326;2022-11-04T11:05:23;1.52;;;0.40;;
56363;SDS011;42261;52.094;4.326;2022-11-04T11:08:14;1.77;;;0.32;;
56363;SDS011;42261;52.094;4.326;2022-11-04T11:11:11;3.05;;;0.40;;
56363;SDS011;42261;52.094;4.326;2022-11-04T11:13:55;6.18;;;0.68;;
56363;SDS011;42261;52.094;4.326;2022-11-04T11:16:39;0.65;;;0.32;;
56363;SDS011;42261;52.094;4.326;2022-11-04T11:19:24;2.15;;;0.35;;
56363;SDS011;42261;52.094;4.326;2022-11-04T11:22:16;5.85;;;0.68;;
56363;SDS011;42261;52.094;4.326;2022-11-04T11:25:29;3.92;;;0.50;;
56363;SDS011;42261;52.094;4.326;2022-11-04T11:28:21;1.95;;;0.70;;
56363;SDS011;42261;52.094;4.326;2022-11-04T11:31:09;2.17;;;0.40;;
56363;SDS011;42261;52.094;4.326;2022-11-04T11:34:00;4.25;;;0.65;;
56363;SDS011;42261;52.094;4.326;2022-11-04T11:36:50;2.13;;;0.40;;
56363;SDS011;42261;52.094;4.326;2022-11-04T11:39:34;2.55;;;0.60;;
56363;SDS011;42261;52.094;4.326;2022-11-04T11:42:18;3.55;;;0.38;;
56363;SDS011;42261;52.094;4.326;2022-11-04T11:45:04;1.27;;;0.40;;
56363;SDS011;42261;52.094;4.326;2022-11-04T11:47:59;3.55;;;0.30;;
56363;SDS011;42261;52.094;4.326;2022-11-04T11:50:52;2.72;;;0.40;;
56363;SDS011;42261;52.094;4.326;2022-11-04T11:53:40;5.32;;;0.40;;
56363;SDS011;42261;52.094;4.326;2022-11-04T11:56:44;2.97;;;0.93;;
56363;SDS011;42261;52.094;4.326;2022-11-04T11:59:43;3.20;;;0.30;;
56363;SDS011;42261;52.094;4.326;2022-11-04T12:02:33;2.95;;;0.50;;
56363;SDS011;42261;52.094;4.326;2022-11-04T12:05:44;0.98;;;0.40;;
56363;SDS011;42261;52.094;4.326;2022-11-04T12:14:07;0.63;;;0.22;;
56363;SDS011;42261;52.094;4.326;2022-11-04T12:20:20;0.20;;;0.20;;
56363;SDS011;42261;52.094;4.326;2022-11-04T12:34:47;2.15;;;0.55;;
56363;SDS011;42261;52.094;4.326;2022-11-04T12:40:54;3.17;;;0.38;;
56363;SDS011;42261;52.094;4.326;2022-11-04T12:47:07;2.65;;;0.30;;
56363;SDS011;42261;52.094;4.326;2022-11-04T12:53:08;3.47;;;0.88;;
56363;SDS011;42261;52.094;4.326;2022-11-04T12:56:11;6.53;;;2.05;;
56363;SDS011;42261;52.094;4.326;2022-11-04T13:01:53;1.65;;;0.43;;
56363;SDS011;42261;52.094;4.326;2022-11-04T13:04:46;0.95;;;0.55;;
56363;SDS011;42261;52.094;4.326;2022-11-04T13:07:38;1.40;;;0.50;;
56363;SDS011;42261;52.094;4.326;2022-11-04T13:10:49;2.10;;;0.50;;
56363;SDS011;42261;52.094;4.326;2022-11-04T13:13:37;6.05;;;0.70;;
56363;SDS011;42261;52.094;4.326;2022-11-04T13:16:22;1.48;;;0.70;;
56363;SDS011;42261;52.094;4.326;2022-11-04T13:19:09;3.17;;;0.82;;
56363;SDS011;42261;52.094;4.326;2022-11-04T13:22:15;3.72;;;0.57;;
56363;SDS011;42261;52.094;4.326;2022-11-04T13:25:07;3.75;;;0.63;;
56363;SDS011;42261;52.094;4.326;2022-11-04T13:27:58;3.28;;;0.55;;
56363;SDS011;42261;52.094;4.326;2022-11-04T13:30:55;1.10;;;0.50;;
56363;SDS011;42261;52.094;4.326;2022-11-04T13:36:43;2.33;;;0.82;;
56363;SDS011;42261;52.094;4.326;2022-11-04T13:39:33;4.40;;;0.55;;
56363;SDS011;42261;52.094;4.326;2022-11-04T13:42:26;4.60;;;0.57;;
56363;SDS011;42261;52.094;4.326;2022-11-04T13:45:22;2.75;;;0.50;;
56363;SDS011;42261;52.094;4.326;2022-11-04T13:48:08;3.03;;;0.68;;
56363;SDS011;42261;52.094;4.326;2022-11-04T13:51:00;1.85;;;0.90;;
56363;SDS011;42261;52.094;4.326;2022-11-04T13:53:48;1.50;;;0.65;;
56363;SDS011;42261;52.094;4.326;2022-11-04T13:56:36;2.22;;;0.50;;
56363;SDS011;42261;52.094;4.326;2022-11-04T13:59:28;3.33;;;0.60;;
56363;SDS011;42261;52.094;4.326;2022-11-04T14:04:57;3.58;;;0.63;;
56363;SDS011;42261;52.094;4.326;2022-11-04T14:08:19;1.70;;;0.60;;
56363;SDS011;42261;52.094;4.326;2022-11-04T14:11:05;10.15;;;2.58;;
56363;SDS011;42261;52.094;4.326;2022-11-04T14:14:00;3.60;;;1.13;;
56363;SDS011;42261;52.094;4.326;2022-11-04T14:16:46;5.75;;;1.70;;
56363;SDS011;42261;52.094;4.326;2022-11-04T14:19:55;3.67;;;0.85;;
56363;SDS011;42261;52.094;4.326;2022-11-04T14:25:39;6.70;;;1.20;;
56363;SDS011;42261;52.094;4.326;2022-11-04T14:28:25;2.95;;;0.80;;
56363;SDS011;42261;52.094;4.326;2022-11-04T14:31:14;2.50;;;0.93;;
56363;SDS011;42261;52.094;4.326;2022-11-04T14:34:28;3.20;;;1.10;;
56363;SDS011;42261;52.094;4.326;2022-11-04T14:37:19;5.45;;;0.95;;
56363;SDS011;42261;52.094;4.326;2022-11-04T14:40:14;4.13;;;1.00;;
56363;SDS011;42261;52.094;4.326;2022-11-04T14:43:11;4.57;;;0.90;;
56363;SDS011;42261;52.094;4.326;2022-11-04T14:46:02;4.63;;;0.90;;
56363;SDS011;42261;52.094;4.326;2022-11-04T14:48:49;4.22;;;1.10;;
56363;SDS011;42261;52.094;4.326;2022-11-04T14:51:39;5.78;;;1.60;;
56363;SDS011;42261;52.094;4.326;2022-11-04T14:54:24;3.73;;;1.20;;
56363;SDS011;42261;52.094;4.326;2022-11-04T14:57:17;5.20;;;2.78;;
56363;SDS011;42261;52.094;4.326;2022-11-04T15:03:22;2.53;;;1.27;;
56363;SDS011;42261;52.094;4.326;2022-11-04T15:06:09;4.80;;;1.08;;
56363;SDS011;42261;52.094;4.326;2022-11-04T15:08:55;5.60;;;0.60;;
56363;SDS011;42261;52.094;4.326;2022-11-04T15:11:41;4.07;;;0.90;;
56363;SDS011;42261;52.094;4.326;2022-11-04T15:14:44;2.67;;;0.90;;
56363;SDS011;42261;52.094;4.326;2022-11-04T15:17:29;6.82;;;1.02;;
56363;SDS011;42261;52.094;4.326;2022-11-04T15:20:24;2.50;;;0.93;;
56363;SDS011;42261;52.094;4.326;2022-11-04T15:23:11;3.40;;;0.70;;
56363;SDS011;42261;52.094;4.326;2022-11-04T15:25:57;1.90;;;0.57;;
56363;SDS011;42261;52.094;4.326;2022-11-04T15:28:44;2.38;;;0.52;;
56363;SDS011;42261;52.094;4.326;2022-11-04T15:31:31;4.47;;;0.50;;
56363;SDS011;42261;52.094;4.326;2022-11-04T15:34:18;2.78;;;0.47;;
56363;SDS011;42261;52.094;4.326;2022-11-04T15:37:03;7.53;;;1.00;;
56363;SDS011;42261;52.094;4.326;2022-11-04T15:39:51;4.90;;;0.98;;
56363;SDS011;42261;52.094;4.326;2022-11-04T15:42:36;5.25;;;0.73;;
56363;SDS011;42261;52.094;4.326;2022-11-04T15:48:24;17.13;;;6.57;;
56363;SDS011;42261;52.094;4.326;2022-11-04T15:54:15;11.65;;;3.45;;
56363;SDS011;42261;52.094;4.326;2022-11-04T15:57:13;14.02;;;3.90;;
56363;SDS011;42261;52.094;4.326;2022-11-04T16:02:55;8.98;;;1.90;;
56363;SDS011;42261;52.094;4.326;2022-11-04T16:05:40;3.15;;;0.80;;
56363;SDS011;42261;52.094;4.326;2022-11-04T16:08:28;4.93;;;0.70;;
56363;SDS011;42261;52.094;4.326;2022-11-04T16:11:16;4.30;;;0.60;;
56363;SDS011;42261;52.094;4.326;2022-11-04T16:14:19;39.90;;;16.67;;
56363;SDS011;42261;52.094;4.326;2022-11-04T16:17:08;17.95;;;7.45;;
56363;SDS011;42261;52.094;4.326;2022-11-04T16:20:03;11.17;;;2.03;;
56363;SDS011;42261;52.094;4.326;2022-11-04T16:22:56;5.35;;;1.50;;
56363;SDS011;42261;52.094;4.326;2022-11-04T16:25:45;2.63;;;0.82;;
56363;SDS011;42261;52.094;4.326;2022-11-04T16:28:32;4.97;;;0.75;;
56363;SDS011;42261;52.094;4.326;2022-11-04T16:34:07;5.47;;;1.23;;
56363;SDS011;42261;52.094;4.326;2022-11-04T16:36:56;5.82;;;1.10;;
56363;SDS011;42261;52.094;4.326;2022-11-04T16:39:42;5.30;;;0.93;;
56363;SDS011;42261;52.094;4.326;2022-11-04T16:42:27;2.90;;;0.88;;
56363;SDS011;42261;52.094;4.326;2022-11-04T16:45:29;3.35;;;0.60;;
56363;SDS011;42261;52.094;4.326;2022-11-04T16:48:15;3.53;;;0.60;;
56363;SDS011;42261;52.094;4.326;2022-11-04T16:51:01;2.83;;;0.70;;
56363;SDS011;42261;52.094;4.326;2022-11-04T16:53:49;3.30;;;0.75;;
56363;SDS011;42261;52.094;4.326;2022-11-04T16:56:36;2.47;;;0.70;;
56363;SDS011;42261;52.094;4.326;2022-11-04T16:59:21;4.93;;;0.82;;
56363;SDS011;42261;52.094;4.326;2022-11-04T17:02:40;1.85;;;0.50;;
56363;SDS011;42261;52.094;4.326;2022-11-04T17:05:20;5.45;;;0.70;;
56363;SDS011;42261;52.094;4.326;2022-11-04T17:08:05;5.15;;;0.70;;
56363;SDS011;42261;52.094;4.326;2022-11-04T17:10:49;8.93;;;0.75;;
56363;SDS011;42261;52.094;4.326;2022-11-04T17:13:34;9.73;;;1.40;;
56363;SDS011;42261;52.094;4.326;2022-11-04T17:16:18;3.08;;;0.60;;
56363;SDS011;42261;52.094;4.326;2022-11-04T17:19:03;3.53;;;0.85;;
56363;SDS011;42261;52.094;4.326;2022-11-04T17:21:48;2.58;;;0.70;;
56363;SDS011;42261;52.094;4.326;2022-11-04T17:24:35;4.68;;;1.23;;
56363;SDS011;42261;52.094;4.326;2022-11-04T17:27:21;3.42;;;1.00;;
56363;SDS011;42261;52.094;4.326;2022-11-04T17:30:06;4.57;;;0.93;;
56363;SDS011;42261;52.094;4.326;2022-11-04T17:32:52;2.22;;;1.10;;
56363;SDS011;42261;52.094;4.326;2022-11-04T17:35:36;6.40;;;1.42;;
56363;SDS011;42261;52.094;4.326;2022-11-04T17:38:20;5.50;;;1.27;;
56363;SDS011;42261;52.094;4.326;2022-11-04T17:41:05;2.67;;;1.20;;
56363;SDS011;42261;52.094;4.326;2022-11-04T17:44:07;3.25;;;1.42;;
56363;SDS011;42261;52.094;4.326;2022-11-04T17:46:52;6.80;;;1.30;;
56363;SDS011;42261;52.094;4.326;2022-11-04T17:49:36;5.07;;;1.60;;
56363;SDS011;42261;52.094;4.326;2022-11-04T17:52:22;2.05;;;0.98;;
56363;SDS011;42261;52.094;4.326;2022-11-04T17:55:07;6.35;;;1.13;;
56363;SDS011;42261;52.094;4.326;2022-11-04T17:57:52;1.88;;;0.77;;
56363;SDS011;42261;52.094;4.326;2022-11-04T18:00:37;8.43;;;1.50;;
56363;SDS011;42261;52.094;4.326;2022-11-04T18:03:21;6.85;;;1.80;;
56363;SDS011;42261;52.094;4.326;2022-11-04T18:06:05;6.80;;;1.67;;
56363;SDS011;42261;52.094;4.326;2022-11-04T18:08:51;3.88;;;1.27;;
56363;SDS011;42261;52.094;4.326;2022-11-04T18:11:37;14.85;;;5.25;;
56363;SDS011;42261;52.094;4.326;2022-11-04T18:14:40;5.18;;;2.13;;
56363;SDS011;42261;52.094;4.326;2022-11-04T18:17:24;5.95;;;1.85;;
56363;SDS011;42261;52.094;4.326;2022-11-04T18:20:10;8.45;;;2.60;;
56363;SDS011;42261;52.094;4.326;2022-11-04T18:22:57;8.18;;;2.50;;
56363;SDS011;42261;52.094;4.326;2022-11-04T18:25:42;5.72;;;2.10;;
56363;SDS011;42261;52.094;4.326;2022-11-04T18:28:27;10.18;;;3.10;;
56363;SDS011;42261;52.094;4.326;2022-11-04T18:31:21;13.85;;;4.10;;
56363;SDS011;42261;52.094;4.326;2022-11-04T18:34:09;13.27;;;3.90;;
56363;SDS011;42261;52.094;4.326;2022-11-04T18:36:54;6.63;;;2.60;;
56363;SDS011;42261;52.094;4.326;2022-11-04T18:39:39;12.75;;;4.35;;
56363;SDS011;42261;52.094;4.326;2022-11-04T18:42:25;7.93;;;3.00;;
56363;SDS011;42261;52.094;4.326;2022-11-04T18:45:09;3.92;;;1.00;;
56363;SDS011;42261;52.094;4.326;2022-11-04T18:47:54;10.85;;;3.75;;
56363;SDS011;42261;52.094;4.326;2022-11-04T18:50:38;7.28;;;1.98;;
56363;SDS011;42261;52.094;4.326;2022-11-04T18:53:22;5.38;;;1.42;;
56363;SDS011;42261;52.094;4.326;2022-11-04T18:56:09;4.15;;;1.40;;
56363;SDS011;42261;52.094;4.326;2022-11-04T18:58:55;3.20;;;1.10;;